Time;durP1;ratioP1;P1;durP2;ratioP2;P2;SDS_P1;SDS_P2;PMS_P1;PMS_P2;Temp;Humidity;BMP_temperature;BMP_pressure;BME280_temperature;BME280_humidity;BME280_pressure;Samples;Min_cycle;Max_cycle;Signal;HPM_P1;HPM_P2
2022/01/26 00:06:39;;;;;;;39.50;19.00;;;;;;;0.61;92.51;99384.16;106309;1277;22710;-73
2022/01/26 00:09:07;;;;;;;37.10;18.20;;;;;;;0.62;92.85;99378.39;106335;1277;22739;-73
2022/01/26 00:11:36;;;;;;;38.70;19.90;;;;;;;0.61;92.58;99377.38;106333;1277;137557;-73
2022/01/26 00:14:12;;;;;;;36.90;19.30;;;;;;;0.61;92.67;99376.81;106276;1277;25440;-73
2022/01/26 00:16:42;;;;;;;37.70;17.50;;;;;;;0.61;92.52;99372.40;106694;1277;137929;-71
2022/01/26 00:19:15;;;;;;;34.70;18.30;;;;;;;0.61;92.45;99372.52;106281;1277;25326;-73
2022/01/26 00:21:52;;;;;;;33.80;16.50;;;;;;;0.61;92.45;99371.66;106361;1277;137441;-73
2022/01/26 00:24:24;;;;;;;35.70;18.10;;;;;;;0.61;92.46;99375.11;106690;1277;22564;-73
2022/01/26 00:29:33;;;;;;;33.30;17.60;;;;;;;0.58;92.69;99378.34;106439;1276;142118;-73
2022/01/26 00:40:31;;;;;;;29.60;16.30;;;;;;;0.59;92.70;99378.69;106467;1277;138069;-72
2022/01/26 00:43:05;;;;;;;34.50;18.10;;;;;;;0.59;92.74;99378.83;106875;1277;25345;-72
2022/01/26 00:45:35;;;;;;;32.40;17.50;;;;;;;0.59;92.64;99382.91;106529;1277;25481;-72
2022/01/26 00:48:06;;;;;;;32.50;16.40;;;;;;;0.60;92.76;99383.55;106345;1277;138894;-72
2022/01/26 00:50:35;;;;;;;29.50;14.80;;;;;;;0.61;92.52;99380.75;106448;1276;25332;-73
2022/01/26 00:53:03;;;;;;;30.50;14.70;;;;;;;0.62;92.73;99384.74;106373;1276;137557;-72
2022/01/26 00:55:32;;;;;;;36.20;17.50;;;;;;;0.60;92.81;99383.31;107005;1276;23495;-73
2022/01/26 00:57:59;;;;;;;34.40;17.00;;;;;;;0.61;92.53;99383.63;106819;1276;137971;-73
2022/01/26 01:00:28;;;;;;;33.70;17.40;;;;;;;0.61;92.62;99380.72;107160;1274;22668;-73
2022/01/26 01:02:57;;;;;;;35.00;17.10;;;;;;;0.62;92.50;99379.06;106548;1277;23418;-73
2022/01/26 01:05:34;;;;;;;30.70;17.00;;;;;;;0.62;92.70;99381.48;106711;1276;138276;-73
2022/01/26 01:08:06;;;;;;;36.00;18.40;;;;;;;0.64;92.67;99377.09;106524;1277;22570;-72
2022/01/26 01:10:34;;;;;;;31.80;17.10;;;;;;;0.64;92.50;99372.89;106992;1277;138036;-72
2022/01/26 01:13:01;;;;;;;31.70;16.90;;;;;;;0.66;92.41;99375.74;106837;1277;25339;-73
2022/01/26 01:15:30;;;;;;;32.70;17.40;;;;;;;0.67;92.67;99374.04;106590;1277;22649;-72
2022/01/26 01:18:09;;;;;;;37.10;17.00;;;;;;;0.67;92.39;99366.33;106450;1277;137052;-73
2022/01/26 01:23:30;;;;;;;35.70;18.60;;;;;;;0.66;92.42;99351.86;106161;1277;137838;-72
2022/01/26 01:31:43;;;;;;;34.40;17.50;;;;;;;0.66;92.67;99374.70;106692;1276;25357;-72
2022/01/26 01:34:12;;;;;;;35.20;17.80;;;;;;;0.65;92.42;99369.98;105922;1277;138160;-72
2022/01/26 01:36:42;;;;;;;31.90;16.10;;;;;;;0.65;92.42;99366.59;106093;1277;25470;-72
2022/01/26 01:39:09;;;;;;;;;;;;;;;0.66;92.59;99363.92;106121;1277;23302;-72
2022/01/26 01:41:38;;;;;;;31.30;15.30;;;;;;;0.67;92.49;99360.27;106405;1274;123873;-72
2022/01/26 01:44:11;;;;;;;31.60;16.70;;;;;;;0.66;92.87;99362.02;106502;1274;25536;-72
2022/01/26 01:46:40;;;;;;;29.80;16.90;;;;;;;0.67;92.61;99362.48;106080;1275;137805;-72
2022/01/26 01:49:08;;;;;;;;;;;;;;;0.68;92.71;99363.39;106459;1274;22681;-72
2022/01/26 01:51:39;;;;;;;29.90;16.20;;;;;;;0.69;92.49;99362.73;106510;1274;22712;-72
2022/01/26 01:54:16;;;;;;;28.00;14.20;;;;;;;0.69;92.46;99361.52;106309;1274;137358;-72
2022/01/26 01:56:53;;;;;;;31.10;17.40;;;;;;;0.67;92.52;99356.59;106420;1274;22631;-72
2022/01/26 01:59:22;;;;;;;29.60;15.50;;;;;;;0.66;92.46;99350.92;106084;1275;137877;-72
2022/01/26 02:01:50;;;;;;;26.50;15.60;;;;;;;0.65;92.45;99347.42;106167;1276;25524;-72
2022/01/26 02:04:17;;;;;;;30.50;16.20;;;;;;;0.65;92.44;99344.61;106078;1277;138316;-72
2022/01/26 02:06:44;;;;;;;31.70;16.90;;;;;;;0.66;92.74;99347.54;106147;1277;25373;-72
2022/01/26 02:09:12;;;;;;;34.10;18.20;;;;;;;0.65;92.56;99349.07;106181;1277;22636;-72
2022/01/26 02:11:48;;;;;;;33.30;16.20;;;;;;;0.65;92.47;99346.55;105857;1277;138053;-72
2022/01/26 02:14:25;;;;;;;34.10;17.00;;;;;;;0.67;92.51;99344.61;106155;1277;22560;-72
2022/01/26 03:03:35;;;;;;;26.40;16.40;;;;;;;0.71;92.54;99325.88;106024;1275;22625;-71
2022/01/26 03:06:08;;;;;;;28.40;14.80;;;;;;;0.73;92.50;99325.16;106007;1274;137438;-74
2022/01/26 03:08:41;;;;;;;30.40;16.10;;;;;;;0.74;92.50;99324.65;106150;1276;22537;-71
2022/01/26 03:11:11;;;;;;;26.30;14.90;;;;;;;0.76;92.73;99322.88;105869;1276;137108;-73
2022/01/26 03:13:45;;;;;;;29.70;16.40;;;;;;;0.75;92.68;99313.30;105954;1276;23430;-73
2022/01/26 03:16:40;;;;;;;27.30;15.80;;;;;;;0.73;92.31;99315.88;106080;1277;138250;-73
2022/01/26 03:22:05;;;;;;;21.90;13.10;;;;;;;0.73;92.39;99317.35;106161;1274;22547;-73
2022/01/26 03:32:53;;;;;;;21.40;12.50;;;;;;;0.71;92.38;99317.10;106086;1276;22592;-72
2022/01/26 03:38:08;;;;;;;26.60;13.90;;;;;;;0.73;92.63;99322.11;106036;1277;25252;-72
2022/01/26 03:40:38;;;;;;;24.50;12.80;;;;;;;0.74;92.67;99318.62;106062;1277;138043;-72
2022/01/26 03:43:05;;;;;;;25.00;13.20;;;;;;;0.74;92.42;99312.33;106009;1274;24298;-72
2022/01/26 03:45:32;;;;;;;20.80;11.30;;;;;;;0.76;92.65;99313.19;105999;1275;22568;-72
2022/01/26 03:48:00;;;;;;;20.30;11.20;;;;;;;0.77;92.48;99312.67;106029;1277;137389;-71
2022/01/26 03:50:27;;;;;;;24.10;14.30;;;;;;;0.74;92.32;99309.34;106026;1277;22744;-72
2022/01/26 03:52:55;;;;;;;23.40;12.80;;;;;;;0.71;92.25;99308.76;105907;1277;138335;-73
2022/01/26 03:55:22;;;;;;;23.90;13.70;;;;;;;0.71;92.37;99306.58;106081;1277;22788;-73
2022/01/26 03:57:49;;;;;;;20.80;12.60;;;;;;;0.73;92.42;99310.55;106099;1276;22635;-73
2022/01/26 04:00:17;;;;;;;22.40;13.10;;;;;;;0.71;92.35;99311.56;105849;1275;137282;-72
2022/01/26 04:02:46;;;;;;;25.70;14.30;;;;;;;0.69;92.54;99314.11;106356;1274;24226;-71
2022/01/26 04:05:14;;;;;;;26.60;12.50;;;;;;;0.69;92.39;99318.83;106009;1276;138615;-72
2022/01/26 04:07:43;;;;;;;27.10;15.20;;;;;;;0.70;92.61;99317.10;106062;1277;22756;-72
2022/01/26 04:10:33;;;;;;;27.70;12.80;;;;;;;0.71;92.44;99319.11;105934;1277;137938;-72
2022/01/26 04:12:58;;;;;;;23.20;13.50;;;;;;;0.70;92.41;99317.05;105974;1274;22545;-73
2022/01/26 04:15:26;;;;;;;29.00;15.20;;;;;;;0.68;92.49;99309.77;106122;1274;22493;-72
2022/01/26 04:17:54;;;;;;;28.30;13.90;;;;;;;0.66;92.65;99310.17;106025;1277;138807;-72
2022/01/26 04:20:25;;;;;;;27.70;14.70;;;;;;;0.66;92.43;99300.20;106066;1274;24101;-72
2022/01/26 04:23:06;;;;;;;23.80;13.70;;;;;;;0.66;92.56;99304.80;106185;1274;138310;-71
2022/01/26 04:25:34;;;;;;;25.00;13.70;;;;;;;0.67;92.70;99305.11;105851;1277;22566;-72
2022/01/26 04:28:06;;;;;;;26.30;14.70;;;;;;;0.65;92.58;99300.59;106325;1277;22759;-74
2022/01/26 04:30:34;;;;;;;25.60;14.90;;;;;;;0.64;92.52;99304.80;106082;1277;138206;-73
2022/01/26 04:33:04;;;;;;;26.50;14.00;;;;;;;0.65;92.63;99302.63;106054;1277;23536;-73
2022/01/26 04:35:33;;;;;;;24.20;13.40;;;;;;;0.65;92.66;99303.63;106180;1275;138395;-72
2022/01/26 04:43:33;;;;;;;25.10;14.40;;;;;;;0.65;92.77;99306.58;106226;1276;23239;-72
2022/01/26 04:46:02;;;;;;;30.90;14.90;;;;;;;0.65;92.60;99301.02;105994;1275;22587;-72
2022/01/26 04:48:29;;;;;;;25.20;14.50;;;;;;;0.66;92.86;99298.05;105754;1274;138164;-74
2022/01/26 04:50:56;;;;;;;23.80;14.10;;;;;;;0.64;92.59;99300.23;105838;1277;25320;-72
2022/01/26 04:53:23;;;;;;;31.80;15.80;;;;;;;0.62;92.68;99296.32;105993;1274;138425;-73
2022/01/26 04:55:52;;;;;;;29.60;15.70;;;;;;;0.60;92.57;99296.34;105848;1276;22728;-73
2022/01/26 04:58:20;;;;;;;28.90;14.10;;;;;;;0.59;92.39;99295.77;105769;1275;138874;-72
2022/01/26 05:00:47;;;;;;;25.20;15.30;;;;;;;0.59;92.51;99294.86;106258;1276;22713;-72
2022/01/26 05:03:14;;;;;;;23.10;13.80;;;;;;;0.59;92.90;99297.04;106254;1276;24268;-71
2022/01/26 05:05:42;;;;;;;34.20;18.60;;;;;;;0.57;92.83;99294.65;106168;1274;137827;-71
2022/01/26 05:08:09;;;;;;;29.10;16.40;;;;;;;0.55;92.59;99295.55;106160;1274;23220;-71
2022/01/26 05:10:38;;;;;;;28.40;14.80;;;;;;;0.55;92.50;99293.84;105922;1274;138027;-71
2022/01/26 05:13:06;;;;;;;23.40;13.70;;;;;;;0.53;92.49;99288.94;106099;1274;22557;-71
2022/01/26 05:15:33;;;;;;;23.80;13.00;;;;;;;0.54;92.86;99284.29;106077;1274;22667;-73
2022/01/26 05:18:00;;;;;;;25.60;13.30;;;;;;;0.52;92.59;99272.98;106362;1276;137211;-72
2022/01/26 05:20:28;;;;;;;23.80;14.00;;;;;;;0.52;92.71;99285.55;106115;1276;22551;-72
2022/01/26 05:22:55;;;;;;;25.40;13.90;;;;;;;0.53;92.88;99286.16;105991;1276;138459;-72
2022/01/26 05:25:22;;;;;;;22.50;12.80;;;;;;;0.55;93.00;99269.19;106611;1274;23506;-72
2022/01/26 05:27:49;;;;;;;22.00;13.10;;;;;;;0.55;92.92;99261.05;106375;1274;24411;-72
2022/01/26 05:30:17;;;;;;;26.30;14.60;;;;;;;0.55;92.72;99269.11;106153;1274;138564;-72
2022/01/26 05:32:44;;;;;;;24.80;13.40;;;;;;;0.55;92.64;99273.85;106746;1274;23433;-73
2022/01/26 05:35:12;;;;;;;25.30;13.50;;;;;;;0.55;92.71;99273.81;106136;1277;138150;-73
2022/01/26 05:37:39;;;;;;;23.30;13.50;;;;;;;0.54;92.58;99275.27;106042;1277;22824;-73
2022/01/26 05:40:07;;;;;;;20.60;11.70;;;;;;;0.52;92.45;99282.50;105974;1277;24269;-73
2022/01/26 05:42:36;;;;;;;26.30;14.40;;;;;;;0.50;92.67;99279.84;106107;1277;139593;-73
2022/01/26 05:45:07;;;;;;;31.80;20.60;;;;;;;0.50;92.74;99278.75;106158;1277;23244;-73
2022/01/26 05:47:35;;;;;;;26.10;15.30;;;;;;;0.52;92.75;99276.08;106126;1277;137848;-72
2022/01/26 05:50:03;;;;;;;26.70;15.10;;;;;;;0.52;92.77;99274.80;106194;1274;25343;-71
2022/01/26 05:52:30;;;;;;;25.60;14.60;;;;;;;0.53;92.89;99273.66;105932;1274;137885;-72
2022/01/26 05:54:57;;;;;;;32.30;17.60;;;;;;;0.51;92.86;99277.75;106273;1274;22709;-72
2022/01/26 05:57:24;;;;;;;30.40;16.30;;;;;;;0.51;93.07;99280.09;106294;1274;23592;-72
2022/01/26 05:59:54;;;;;;;25.50;15.10;;;;;;;0.51;92.87;99279.39;106223;1277;138129;-71
2022/01/26 06:02:21;;;;;;;28.70;15.40;;;;;;;0.52;93.07;99277.64;106308;1277;22554;-72
2022/01/26 06:04:48;;;;;;;21.90;12.50;;;;;;;0.52;92.96;99274.27;106080;1277;138912;-72
2022/01/26 06:07:16;;;;;;;27.90;16.00;;;;;;;0.51;93.20;99274.89;106278;1274;22550;-71
2022/01/26 06:09:43;;;;;;;32.50;16.90;;;;;;;0.52;93.30;99273.20;106007;1274;22664;-72
2022/01/26 06:12:10;;;;;;;27.00;14.90;;;;;;;0.54;93.02;99274.41;106527;1274;137949;-72
2022/01/26 06:14:37;;;;;;;27.20;14.80;;;;;;;0.55;93.05;99273.07;106723;1274;25390;-72
2022/01/26 06:17:04;;;;;;;25.70;15.10;;;;;;;0.56;93.11;99275.16;106797;1272;137218;-72
2022/01/26 06:19:31;;;;;;;28.50;15.90;;;;;;;0.56;93.06;99274.74;106961;1274;22552;-72
2022/01/26 06:21:58;;;;;;;27.10;15.00;;;;;;;0.56;92.99;99277.27;106779;1274;23848;-72
2022/01/26 06:24:26;;;;;;;23.40;14.00;;;;;;;0.57;92.80;99277.02;106612;1274;138089;-72
2022/01/26 06:26:55;;;;;;;27.20;15.20;;;;;;;0.59;92.94;99273.45;106663;1274;25083;-72
2022/01/26 06:29:30;;;;;;;25.10;14.80;;;;;;;0.59;92.87;99272.02;106262;1274;137629;-73
2022/01/26 06:31:57;;;;;;;25.80;14.70;;;;;;;0.59;93.10;99271.98;106219;1274;22576;-72
2022/01/26 06:34:51;;;;;;;27.50;14.50;;;;;;;0.60;93.07;99270.44;105889;1276;137949;-72
2022/01/26 06:37:18;;;;;;;22.10;12.60;;;;;;;0.62;92.80;99266.66;106344;1274;22564;-72
2022/01/26 06:39:46;;;;;;;20.90;12.20;;;;;;;0.64;93.12;99265.00;106543;1274;22566;-72
2022/01/26 06:42:16;;;;;;;21.30;11.70;;;;;;;0.66;92.96;99265.55;106144;1277;137231;-72
2022/01/26 06:44:57;;;;;;;25.80;13.70;;;;;;;0.68;93.15;99264.58;106296;1277;24430;-72
2022/01/26 06:49:54;;;;;;;23.40;12.50;;;;;;;0.74;92.95;99263.77;106480;1274;25254;-72
2022/01/26 06:52:21;;;;;;;21.80;12.70;;;;;;;0.76;93.00;99262.48;106234;1274;137689;-71
2022/01/26 06:54:48;;;;;;;24.50;14.00;;;;;;;0.76;92.51;99267.52;106247;1274;23038;-73
2022/01/26 06:57:15;;;;;;;31.00;16.80;;;;;;;0.73;92.63;99267.09;106101;1274;24336;-73
2022/01/26 06:59:43;;;;;;;33.10;17.70;;;;;;;0.72;92.49;99267.04;106101;1274;138006;-73
2022/01/26 07:02:10;;;;;;;30.10;16.70;;;;;;;0.72;92.56;99264.86;106526;1276;23416;-73
2022/01/26 07:04:37;;;;;;;29.50;16.40;;;;;;;0.73;92.68;99265.14;106469;1274;138242;-73
2022/01/26 07:07:04;;;;;;;32.30;17.70;;;;;;;0.77;92.85;99266.89;106438;1274;25300;-73
2022/01/26 07:09:31;;;;;;;28.10;14.20;;;;;;;0.80;92.78;99261.56;106334;1275;24060;-71
2022/01/26 07:12:13;;;;;;;36.00;19.50;;;;;;;0.80;92.68;99266.73;106398;1277;137667;-71
2022/01/26 07:23:08;;;;;;;25.70;15.60;;;;;;;0.86;92.69;99258.75;106185;1277;137266;-73
2022/01/26 07:25:36;;;;;;;32.20;18.30;;;;;;;0.86;92.66;99259.98;106450;1274;26372;-74
2022/01/26 07:28:04;;;;;;;32.90;18.70;;;;;;;0.88;92.60;99258.55;106387;1274;25062;-73
2022/01/26 07:30:35;;;;;;;30.30;16.90;;;;;;;0.90;92.64;99261.67;106097;1277;137690;-71
2022/01/26 07:33:03;;;;;;;27.40;15.30;;;;;;;0.94;92.48;99260.95;106246;1277;22561;-72
2022/01/26 07:35:31;;;;;;;27.70;15.60;;;;;;;0.97;92.59;99263.14;106255;1276;137216;-71
2022/01/26 07:38:02;;;;;;;29.30;15.60;;;;;;;0.97;92.47;99263.27;105660;1275;25401;-71
2022/01/26 07:40:30;;;;;;;30.50;16.40;;;;;;;0.99;92.48;99263.70;106211;1274;137420;-71
2022/01/26 07:42:57;;;;;;;28.50;15.70;;;;;;;1.01;92.48;99266.50;106156;1277;22548;-71
2022/01/26 07:45:25;;;;;;;27.90;15.80;;;;;;;1.04;92.46;99267.71;106337;1275;26137;-71
2022/01/26 07:47:54;;;;;;;24.40;14.30;;;;;;;1.07;92.34;99265.12;106273;1274;138677;-72
2022/01/26 07:50:22;;;;;;;27.20;14.50;;;;;;;1.10;92.33;99270.80;106612;1277;30675;-71
2022/01/26 07:52:50;;;;;;;33.60;17.30;;;;;;;1.12;92.26;99269.41;106101;1277;137493;-71
2022/01/26 07:55:20;;;;;;;30.20;16.40;;;;;;;1.13;92.20;99269.81;106030;1275;22550;-71
2022/01/26 07:57:49;;;;;;;27.50;16.10;;;;;;;1.15;91.97;99267.27;106385;1277;24268;-71
2022/01/26 08:00:19;;;;;;;29.60;17.20;;;;;;;1.17;92.04;99267.05;106318;1274;137463;-71
2022/01/26 08:02:47;;;;;;;28.50;16.40;;;;;;;1.17;92.00;99263.28;106104;1274;22711;-71
2022/01/26 08:05:15;;;;;;;31.90;17.20;;;;;;;1.19;92.13;99264.05;106078;1274;138042;-72
2022/01/26 08:07:43;;;;;;;33.70;18.50;;;;;;;1.21;91.99;99262.31;106241;1275;22911;-72
2022/01/26 08:10:11;;;;;;;27.30;16.00;;;;;;;1.26;91.91;99264.34;106300;1274;25708;-71
2022/01/26 08:12:39;;;;;;;25.40;15.00;;;;;;;1.29;91.87;99260.09;106303;1277;137255;-72
2022/01/26 08:15:09;;;;;;;32.20;16.90;;;;;;;1.29;91.49;99261.30;106414;1277;22552;-72
2022/01/26 08:17:39;;;;;;;33.00;17.80;;;;;;;1.31;91.81;99260.92;105859;1277;137659;-71
2022/01/26 08:20:10;;;;;;;31.70;16.80;;;;;;;1.33;91.51;99258.41;106452;1274;22541;-71
2022/01/26 08:22:39;;;;;;;32.10;16.90;;;;;;;1.35;91.53;99253.49;106134;1274;137975;-72
2022/01/26 08:25:07;;;;;;;33.60;17.50;;;;;;;1.40;91.48;99249.80;106110;1277;22565;-72
2022/01/26 08:27:40;;;;;;;27.70;15.50;;;;;;;1.42;91.35;99257.13;106707;1274;24220;-71
2022/01/26 08:30:14;;;;;;;33.10;17.60;;;;;;;1.38;91.21;99258.27;106005;1277;137191;-71
2022/01/26 08:32:45;;;;;;;40.40;18.70;;;;;;;1.37;91.32;99262.83;106250;1277;24309;-71
2022/01/26 08:35:16;;;;;;;30.90;17.50;;;;;;;1.39;91.12;99263.85;106126;1277;138427;-73
2022/01/26 08:37:43;;;;;;;34.10;19.90;;;;;;;1.40;91.27;99265.73;106026;1277;22556;-72
2022/01/26 08:40:10;;;;;;;31.80;17.30;;;;;;;1.43;91.24;99265.70;106043;1274;22539;-72
2022/01/26 08:42:39;;;;;;;32.40;17.50;;;;;;;1.42;90.98;99268.45;106078;1275;137623;-72
2022/01/26 08:45:07;;;;;;;34.90;19.10;;;;;;;1.39;90.72;99266.13;106204;1274;24394;-72
2022/01/26 08:47:36;;;;;;;31.10;16.90;;;;;;;1.40;91.13;99268.39;106075;1274;137601;-72
2022/01/26 08:50:04;;;;;;;;;;;;;;;1.42;91.02;99271.21;106531;1277;22587;-73
2022/01/26 08:52:31;;;;;;;29.80;16.40;;;;;;;1.44;91.13;99273.48;106070;1277;124292;-73
2022/01/26 08:54:58;;;;;;;39.40;22.10;;;;;;;1.46;91.06;99278.09;106014;1277;22592;-73
2022/01/26 08:57:26;;;;;;;42.40;21.20;;;;;;;1.51;91.05;99275.27;106068;1277;22772;-73
2022/01/26 08:59:53;;;;;;;38.40;19.80;;;;;;;1.57;90.99;99279.22;106001;1277;138061;-73
2022/01/26 09:02:21;;;;;;;38.50;19.90;;;;;;;1.62;90.83;99281.02;106067;1277;22554;-72
2022/01/26 09:04:48;;;;;;;39.50;19.90;;;;;;;1.64;90.73;99284.55;105877;1275;137500;-72
2022/01/26 09:07:16;;;;;;;38.30;21.30;;;;;;;1.65;90.70;99287.27;106206;1274;25358;-72
2022/01/26 09:09:44;;;;;;;37.90;19.40;;;;;;;1.66;90.59;99280.08;106059;1274;25319;-72
2022/01/26 09:12:18;;;;;;;34.00;18.20;;;;;;;1.68;90.63;99283.95;105937;1277;138700;-72
2022/01/26 09:14:47;;;;;;;31.80;18.80;;;;;;;1.74;90.46;99279.75;106566;1276;22573;-72
2022/01/26 09:17:19;;;;;;;34.40;18.60;;;;;;;1.80;90.45;99281.90;106069;1277;137618;-72
2022/01/26 09:19:48;;;;;;;38.40;19.20;;;;;;;1.86;90.33;99284.14;106404;1277;22681;-72
2022/01/26 09:22:22;;;;;;;44.50;20.70;;;;;;;1.93;90.19;99285.95;106306;1276;25267;-72
2022/01/26 09:25:31;;;;;;;38.60;19.50;;;;;;;2.00;90.16;99287.84;106316;1274;25376;-72
2022/01/26 09:28:15;;;;;;;32.90;17.90;;;;;;;2.15;90.12;99287.81;106260;1274;24415;-72
2022/01/26 09:30:44;;;;;;;37.00;19.20;;;;;;;2.20;89.60;99291.49;106165;1274;137166;-73
2022/01/26 09:33:14;;;;;;;39.00;21.90;;;;;;;2.27;89.66;99292.50;106263;1276;22534;-72
2022/01/26 09:35:44;;;;;;;;;;;;;;;2.35;89.42;99295.33;106242;1277;138394;-72
2022/01/26 09:38:14;;;;;;;38.20;20.50;;;;;;;2.38;89.10;99291.25;106446;1277;24294;-72
2022/01/26 09:40:41;;;;;;;32.60;17.70;;;;;;;2.42;88.93;99290.15;106459;1275;22548;-73
2022/01/26 09:43:10;;;;;;;40.80;21.00;;;;;;;2.41;88.36;99287.89;106500;1274;137421;-73
2022/01/26 09:45:37;;;;;;;41.70;22.10;;;;;;;2.41;88.72;99282.86;106109;1274;22548;-73
2022/01/26 09:48:05;;;;;;;39.40;22.00;;;;;;;2.46;88.95;99279.78;106186;1275;138551;-73
2022/01/26 09:50:34;;;;;;;41.10;20.50;;;;;;;2.52;88.58;99278.80;106513;1275;23917;-73
2022/01/26 09:53:02;;;;;;;33.00;18.30;;;;;;;2.57;88.34;99272.48;106290;1277;137772;-72
2022/01/26 09:55:30;;;;;;;37.50;20.90;;;;;;;2.60;88.09;99275.00;105828;1277;277974;-72
2022/01/26 09:57:58;;;;;;;43.70;21.80;;;;;;;2.63;88.16;99272.50;106264;1277;25267;-72
2022/01/26 10:00:28;;;;;;;38.50;20.50;;;;;;;2.64;88.02;99272.30;106257;1277;137706;-73
2022/01/26 10:02:57;;;;;;;38.30;20.20;;;;;;;2.60;87.85;99274.34;106356;1274;23185;-74
2022/01/26 10:05:25;;;;;;;34.30;18.80;;;;;;;2.59;87.97;99278.04;106157;1275;138443;-73
2022/01/26 10:08:08;;;;;;;36.10;19.60;;;;;;;2.56;87.69;99273.91;106242;1276;22615;-73
2022/01/26 10:17:19;;;;;;;35.60;19.10;;;;;;;2.36;87.71;99272.88;106263;1277;24373;-73
2022/01/26 10:18:59;;;;;;;35.40;18.80;;;;;;;2.30;87.67;99272.43;106019;1277;138182;-74
2022/01/26 10:21:28;;;;;;;37.30;18.30;;;;;;;2.24;87.57;99265.12;106399;1277;22848;-72
2022/01/26 10:23:59;;;;;;;38.70;19.20;;;;;;;2.16;87.79;99263.05;105806;1277;137160;-72
2022/01/26 10:26:26;;;;;;;40.20;19.70;;;;;;;2.10;87.92;99264.82;106002;1275;25245;-74
2022/01/26 10:28:56;;;;;;;40.10;18.50;;;;;;;2.06;88.03;99264.39;105980;1275;138113;-74
2022/01/26 10:31:39;;;;;;;40.10;19.70;;;;;;;2.02;88.21;99259.66;106218;1276;25266;-74
2022/01/26 10:34:24;;;;;;;39.30;20.50;;;;;;;2.03;88.29;99257.50;106190;1277;30607;-71
2022/01/26 10:37:00;;;;;;;37.90;20.60;;;;;;;2.01;88.29;99255.59;105792;1277;137705;-71
2022/01/26 10:39:45;;;;;;;40.70;20.10;;;;;;;1.98;88.41;99254.38;106204;1279;22626;-71
2022/01/26 10:43:10;;;;;;;41.30;20.30;;;;;;;1.97;88.47;99252.27;106969;1277;137971;-72
2022/01/26 10:48:26;;;;;;;34.60;18.60;;;;;;;2.04;88.88;99244.38;105818;1276;137187;-71
2022/01/26 10:54:27;;;;;;;38.00;19.60;;;;;;;2.08;88.85;99235.09;106045;1277;138428;-73
2022/01/26 10:57:46;;;;;;;36.60;18.90;;;;;;;2.08;88.71;99238.52;106069;1277;23923;-73
2022/01/26 11:00:14;;;;;;;30.80;16.40;;;;;;;2.09;88.88;99236.43;105795;1278;137617;-73
2022/01/26 11:02:47;;;;;;;34.80;19.00;;;;;;;2.08;88.77;99231.23;105844;1278;23824;-73
2022/01/26 11:05:19;;;;;;;38.00;19.10;;;;;;;2.06;88.88;99230.53;106002;1276;137491;-72
2022/01/26 11:07:47;;;;;;;38.40;19.70;;;;;;;2.03;88.73;99229.23;106204;1276;26512;-72
2022/01/26 11:10:16;;;;;;;41.30;20.70;;;;;;;2.01;88.82;99228.77;106116;1276;23919;-72
2022/01/26 11:12:43;;;;;;;39.50;18.50;;;;;;;2.01;88.95;99225.79;106002;1276;138350;-72
2022/01/26 11:15:24;;;;;;;46.00;22.10;;;;;;;2.00;88.83;99228.38;105765;1277;26651;-72
2022/01/26 11:18:20;;;;;;;42.30;22.10;;;;;;;1.98;89.07;99228.90;106279;1277;137280;-72
2022/01/26 11:21:16;;;;;;;49.90;22.30;;;;;;;1.99;89.11;99226.45;106149;1277;22721;-72
2022/01/26 11:24:15;;;;;;;40.30;20.40;;;;;;;1.98;89.07;99224.13;106441;1276;138020;-73
2022/01/26 11:26:47;;;;;;;38.50;21.80;;;;;;;1.96;88.98;99221.95;106187;1276;27826;-72
2022/01/26 11:29:21;;;;;;;31.00;16.40;;;;;;;1.95;89.17;99221.19;105852;1276;138014;-71
2022/01/26 11:32:11;;;;;;;33.80;17.50;;;;;;;1.93;89.08;99217.46;106384;1276;22538;-71
2022/01/26 11:34:41;;;;;;;47.50;21.00;;;;;;;1.89;89.18;99216.45;106113;1276;22797;-71
2022/01/26 11:37:13;;;;;;;56.60;24.40;;;;;;;1.89;89.25;99212.33;106029;1277;137725;-72
2022/01/26 11:45:20;;;;;;;57.30;24.50;;;;;;;2.01;89.59;99209.58;106251;1274;22555;-72
2022/01/26 11:48:09;;;;;;;40.80;20.20;;;;;;;2.06;89.50;99205.41;105826;1275;137802;-72
2022/01/26 11:50:42;;;;;;;40.20;21.00;;;;;;;2.10;89.37;99203.05;105837;1277;23342;-72
2022/01/26 11:53:16;;;;;;;40.50;21.00;;;;;;;2.14;89.42;99198.54;106176;1274;137752;-71
2022/01/26 11:55:52;;;;;;;36.10;18.60;;;;;;;2.17;89.43;99196.39;106551;1277;30903;-72
2022/01/26 11:58:43;;;;;;;38.20;19.80;;;;;;;2.17;89.16;99197.84;106240;1277;23041;-71
2022/01/26 12:01:29;;;;;;;39.00;19.20;;;;;;;2.17;89.14;99197.45;106198;1277;138057;-71
2022/01/26 12:04:02;;;;;;;33.90;17.50;;;;;;;2.18;89.08;99194.42;106554;1274;22578;-73
2022/01/26 12:06:47;;;;;;;29.10;16.20;;;;;;;2.19;89.08;99192.41;106463;1275;137357;-73
2022/01/26 12:09:15;;;;;;;33.10;17.50;;;;;;;2.19;89.02;99188.27;106333;1274;22596;-72
2022/01/26 12:11:58;;;;;;;37.90;18.60;;;;;;;2.17;88.83;99185.64;106829;1274;137718;-72
2022/01/26 12:14:37;;;;;;;37.70;18.90;;;;;;;2.15;89.00;99182.41;107010;1274;22706;-73
2022/01/26 12:17:27;;;;;;;32.00;16.60;;;;;;;2.18;89.03;99181.04;105888;1277;138138;-73
2022/01/26 12:44:06;;;;;;;29.30;15.90;;;;;;;2.10;88.61;99162.72;106307;1275;137724;-71
2022/01/26 12:46:37;;;;;;;29.20;15.40;;;;;;;2.08;88.65;99165.24;106108;1278;22662;-71
2022/01/26 12:49:08;;;;;;;33.00;16.70;;;;;;;2.07;88.65;99164.30;105911;1277;137353;-71
2022/01/26 12:51:46;;;;;;;33.20;16.30;;;;;;;2.07;88.82;99153.76;106061;1278;26500;-71
2022/01/26 12:54:19;;;;;;;31.70;16.20;;;;;;;2.04;88.89;99148.52;106290;1277;137368;-71
2022/01/26 12:57:06;;;;;;;36.20;17.70;;;;;;;2.02;88.82;99148.61;106516;1275;30476;-71
2022/01/26 12:59:39;;;;;;;;;;;;;;;2.06;88.93;99147.46;106254;1274;138077;-72
2022/01/26 13:02:10;;;;;;;32.20;16.40;;;;;;;2.07;88.89;99144.80;106178;1274;25508;-71
2022/01/26 13:04:37;;;;;;;29.50;15.20;;;;;;;2.04;88.87;99139.78;106281;1277;22700;-71
2022/01/26 13:07:05;;;;;;;33.60;18.30;;;;;;;2.03;88.88;99142.80;106058;1275;137542;-71
2022/01/26 13:09:41;;;;;;;34.60;18.30;;;;;;;2.01;88.91;99141.15;106453;1274;25382;-71
2022/01/26 13:12:10;;;;;;;35.60;17.50;;;;;;;2.02;88.88;99141.27;105960;1275;138073;-71
2022/01/26 13:14:42;;;;;;;32.40;17.20;;;;;;;2.01;88.83;99142.48;106226;1275;22546;-71
2022/01/26 13:17:20;;;;;;;31.20;17.40;;;;;;;1.99;89.01;99141.27;106227;1274;24308;-71
2022/01/26 13:19:59;;;;;;;36.50;19.40;;;;;;;1.96;89.00;99142.69;105904;1277;137015;-71
2022/01/26 13:30:22;;;;;;;33.10;16.60;;;;;;;1.97;89.14;99127.38;106224;1277;137919;-72
2022/01/26 13:50:48;;;;;;;25.00;14.40;;;;;;;1.90;88.95;99132.36;106408;1277;22575;-71
2022/01/26 14:02:30;;;;;;;24.70;14.40;;;;;;;1.80;89.18;99137.66;106268;1277;22596;-71
2022/01/26 14:05:02;;;;;;;21.80;13.60;;;;;;;1.80;89.32;99141.89;106846;1277;22614;-72
2022/01/26 14:07:32;;;;;;;18.20;11.40;;;;;;;1.80;89.25;99146.79;106336;1277;137789;-72
2022/01/26 14:09:59;;;;;;;26.00;14.50;;;;;;;1.76;89.16;99145.64;106317;1277;24405;-73
2022/01/26 14:12:31;;;;;;;28.90;16.00;;;;;;;1.70;89.16;99149.05;106196;1277;137740;-72
2022/01/26 14:14:59;;;;;;;23.80;14.90;;;;;;;1.66;89.40;99147.77;106375;1277;25320;-72
2022/01/26 14:17:38;;;;;;;21.20;12.60;;;;;;;1.63;89.29;99151.48;106312;1274;138481;-72
2022/01/26 14:20:29;;;;;;;21.60;13.70;;;;;;;1.59;89.39;99147.30;106381;1274;23285;-72
2022/01/26 14:25:48;;;;;;;26.40;14.70;;;;;;;1.50;89.78;99145.26;106320;1274;137240;-72
2022/01/26 14:28:18;;;;;;;20.70;13.60;;;;;;;1.49;89.93;99138.69;106228;1275;23970;-72
2022/01/26 14:36:44;;;;;;;21.70;14.60;;;;;;;1.41;90.24;99139.58;106239;1277;137624;-72
2022/01/26 14:56:14;;;;;;;30.10;18.10;;;;;;;1.25;90.87;99138.14;106224;1277;137792;-72
2022/01/26 15:19:06;;;;;;;39.90;22.10;;;;;;;1.20;91.20;99136.00;106466;1277;137753;-73